createdAt,value
2022-11-24T00:00:41.234Z,1002.82
2022-11-24T00:01:41.213Z,1002.79
2022-11-24T00:02:41.333Z,1002.81
2022-11-24T00:03:41.290Z,1002.81
2022-11-24T00:04:41.184Z,1002.85
2022-11-24T00:05:41.156Z,1002.79
2022-11-24T00:06:41.161Z,1002.82
2022-11-24T00:07:41.225Z,1002.81
2022-11-24T00:08:41.131Z,1002.77
2022-11-24T00:09:41.125Z,1002.83
2022-11-24T00:10:41.109Z,1002.86
2022-11-24T00:11:41.095Z,1002.88
2022-11-24T00:12:41.106Z,1002.84
2022-11-24T00:13:41.068Z,1002.84
2022-11-24T00:14:41.056Z,1002.89
2022-11-24T00:15:41.099Z,1002.85
2022-11-24T00:16:41.077Z,1002.87
2022-11-24T00:17:41.028Z,1002.88
2022-11-24T00:18:41.002Z,1002.89
2022-11-24T00:19:41.014Z,1002.89
2022-11-24T00:20:40.977Z,1002.89
2022-11-24T00:21:40.986Z,1002.91
2022-11-24T00:22:40.954Z,1002.89
2022-11-24T00:23:40.961Z,1002.87
2022-11-24T00:24:40.951Z,1002.87
2022-11-24T00:25:40.924Z,1002.87
2022-11-24T00:26:40.910Z,1002.88
2022-11-24T00:27:40.956Z,1002.88
2022-11-24T00:28:40.997Z,1002.88
2022-11-24T00:29:40.869Z,1002.90
2022-11-24T00:30:40.934Z,1002.86
2022-11-24T00:31:40.849Z,1002.88
2022-11-24T00:32:40.839Z,1002.94
2022-11-24T00:33:40.820Z,1002.89
2022-11-24T00:34:40.809Z,1002.91
2022-11-24T00:35:40.826Z,1002.91
2022-11-24T00:36:40.811Z,1002.91
2022-11-24T00:37:40.778Z,1002.91
2022-11-24T00:38:40.767Z,1002.91
2022-11-24T00:39:40.746Z,1002.89
2022-11-24T00:40:40.743Z,1002.88
2022-11-24T00:41:40.739Z,1002.92
2022-11-24T00:42:40.722Z,1002.94
2022-11-24T00:43:40.715Z,1002.96
2022-11-24T00:44:40.721Z,1002.96
2022-11-24T00:45:40.758Z,1002.98
2022-11-24T00:46:40.749Z,1002.98
2022-11-24T00:47:40.668Z,1002.96
2022-11-24T00:48:40.650Z,1002.99
2022-11-24T00:49:40.652Z,1002.95
2022-11-24T00:50:40.630Z,1002.99
2022-11-24T00:51:40.599Z,1002.99
2022-11-24T00:52:40.614Z,1003.01
2022-11-24T00:53:40.572Z,1003.00
2022-11-24T00:55:24.678Z,1003.03
2022-11-24T00:59:36.386Z,1003.13
2022-11-24T01:01:38.208Z,1003.08
2022-11-24T01:02:45.725Z,1003.01
2022-11-24T01:03:46.687Z,1003.07
2022-11-24T01:04:38.098Z,1003.09
2022-11-24T01:05:38.070Z,1003.08
2022-11-24T01:06:38.065Z,1003.12
2022-11-24T01:07:38.204Z,1003.16
2022-11-24T01:08:38.043Z,1003.16
2022-11-24T01:09:38.023Z,1003.19
2022-11-24T01:10:38.014Z,1003.14
2022-11-24T01:11:38.029Z,1003.24
2022-11-24T01:12:37.986Z,1003.22
2022-11-24T01:13:38.037Z,1003.25
2022-11-24T01:14:37.958Z,1003.26
2022-11-24T01:15:38.022Z,1003.29
2022-11-24T01:16:37.967Z,1003.25
2022-11-24T01:17:37.927Z,1003.27
2022-11-24T01:18:37.929Z,1003.29
2022-11-24T01:19:37.928Z,1003.29
2022-11-24T01:20:37.895Z,1003.32
2022-11-24T01:21:37.898Z,1003.33
2022-11-24T01:22:37.902Z,1003.33
2022-11-24T01:23:37.847Z,1003.34
2022-11-24T01:24:37.870Z,1003.31
2022-11-24T01:25:37.846Z,1003.35
2022-11-24T01:26:37.811Z,1003.36
2022-11-24T01:27:37.816Z,1003.33
2022-11-24T01:28:41.862Z,1003.38
2022-11-24T01:29:38.818Z,1003.35
2022-11-24T01:30:37.885Z,1003.39
2022-11-24T01:31:37.776Z,1003.36
2022-11-24T01:32:37.752Z,1003.33
2022-11-24T01:33:37.727Z,1003.33
2022-11-24T01:34:37.729Z,1003.30
2022-11-24T01:35:37.723Z,1003.29
2022-11-24T01:36:37.711Z,1003.30
2022-11-24T01:37:37.681Z,1003.28
2022-11-24T01:38:37.663Z,1003.30
2022-11-24T01:39:37.671Z,1003.29
2022-11-24T01:40:37.647Z,1003.30
2022-11-24T01:41:37.637Z,1003.31
2022-11-24T01:42:58.641Z,1003.32
2022-11-24T01:43:37.635Z,1003.29
2022-11-24T01:44:37.600Z,1003.33
2022-11-24T01:45:37.580Z,1003.30
2022-11-24T01:46:37.616Z,1003.34
2022-11-24T01:47:37.559Z,1003.34
2022-11-24T01:48:37.582Z,1003.34
2022-11-24T01:49:37.561Z,1003.39
2022-11-24T01:50:40.005Z,1003.38
2022-11-24T01:51:37.541Z,1003.41
2022-11-24T01:52:37.499Z,1003.38
2022-11-24T01:53:37.503Z,1003.39
2022-11-24T01:54:37.484Z,1003.40
2022-11-24T01:55:37.468Z,1003.37
2022-11-24T01:56:37.467Z,1003.44
2022-11-24T01:57:37.478Z,1003.38
2022-11-24T01:58:37.448Z,1003.36
2022-11-24T01:59:37.410Z,1003.37
2022-11-24T02:00:37.418Z,1003.39
2022-11-24T02:01:37.485Z,1003.41
2022-11-24T02:02:37.432Z,1003.42
2022-11-24T02:03:47.433Z,1003.41
2022-11-24T02:04:49.889Z,1003.43
2022-11-24T02:05:37.385Z,1003.45
2022-11-24T02:06:37.366Z,1003.45
2022-11-24T02:07:37.389Z,1003.44
2022-11-24T02:08:37.362Z,1003.45
2022-11-24T02:09:37.332Z,1003.47
2022-11-24T02:10:37.303Z,1003.50
2022-11-24T02:11:37.293Z,1003.50
2022-11-24T02:12:37.294Z,1003.53
2022-11-24T02:13:37.280Z,1003.52
2022-11-24T02:14:37.264Z,1003.48
2022-11-24T02:15:37.326Z,1003.48
2022-11-24T02:16:37.239Z,1003.51
2022-11-24T02:17:37.222Z,1003.52
2022-11-24T02:20:04.234Z,1003.50
2022-11-24T02:29:05.763Z,1003.64
2022-11-24T02:30:05.440Z,1003.64
2022-11-24T02:31:05.462Z,1003.69
2022-11-24T02:32:05.669Z,1003.63
2022-11-24T02:33:05.569Z,1003.59
2022-11-24T02:34:05.426Z,1003.60
2022-11-24T02:35:05.333Z,1003.64
2022-11-24T02:36:06.150Z,1003.60
2022-11-24T02:37:05.341Z,1003.59
2022-11-24T02:38:05.311Z,1003.60
2022-11-24T02:39:05.230Z,1003.59
2022-11-24T02:40:05.389Z,1003.60
2022-11-24T02:41:05.224Z,1003.61
2022-11-24T02:42:05.338Z,1003.63
2022-11-24T02:43:05.211Z,1003.59
2022-11-24T02:44:05.368Z,1003.60
2022-11-24T02:45:05.268Z,1003.58
2022-11-24T02:46:05.322Z,1003.63
2022-11-24T02:47:05.134Z,1003.61
2022-11-24T02:48:05.217Z,1003.63
2022-11-24T02:49:05.184Z,1003.70
2022-11-24T02:50:05.146Z,1003.70
2022-11-24T02:51:05.183Z,1003.69
2022-11-24T02:52:05.292Z,1003.69
2022-11-24T02:53:05.189Z,1003.70
2022-11-24T02:54:05.222Z,1003.71
2022-11-24T02:55:05.147Z,1003.75
2022-11-24T02:56:05.132Z,1003.67
2022-11-24T02:57:05.100Z,1003.72
2022-11-24T02:58:05.160Z,1003.70
2022-11-24T02:59:05.092Z,1003.74
2022-11-24T03:00:05.084Z,1003.68
2022-11-24T03:01:05.043Z,1003.71
2022-11-24T03:02:05.067Z,1003.69
2022-11-24T03:03:05.093Z,1003.68
2022-11-24T03:25:09.683Z,1003.89
2022-11-24T03:26:09.677Z,1003.90
2022-11-24T03:27:09.645Z,1003.90
2022-11-24T03:28:09.634Z,1003.92
2022-11-24T03:29:09.639Z,1003.94
2022-11-24T03:30:09.628Z,1003.95
2022-11-24T03:31:09.644Z,1003.95
2022-11-24T03:32:09.579Z,1003.94
2022-11-24T03:33:09.566Z,1003.94
2022-11-24T03:34:09.623Z,1003.95
2022-11-24T03:35:09.526Z,1003.94
2022-11-24T03:36:09.536Z,1004.01
2022-11-24T03:37:09.524Z,1003.94
2022-11-24T03:38:09.516Z,1003.96
2022-11-24T03:39:09.492Z,1004.01
2022-11-24T03:40:09.517Z,1004.02
2022-11-24T03:41:09.460Z,1004.00
2022-11-24T03:42:09.457Z,1004.04
2022-11-24T03:43:09.448Z,1004.07
2022-11-24T03:44:09.449Z,1004.08
2022-11-24T03:45:37.854Z,1004.06
2022-11-24T03:46:10.432Z,1004.09
2022-11-24T03:47:09.385Z,1004.11
2022-11-24T03:48:09.386Z,1004.10
2022-11-24T03:49:09.366Z,1004.10
2022-11-24T03:50:09.363Z,1004.08
2022-11-24T03:51:09.380Z,1004.11
2022-11-24T03:52:09.343Z,1004.08
2022-11-24T03:53:09.319Z,1004.10
2022-11-24T03:54:09.314Z,1004.12
2022-11-24T03:55:09.285Z,1004.10
2022-11-24T03:56:09.294Z,1004.10
2022-11-24T03:57:09.284Z,1004.11
2022-11-24T03:58:09.290Z,1004.18
2022-11-24T03:59:09.237Z,1004.11
2022-11-24T04:00:09.232Z,1004.11
2022-11-24T04:01:09.249Z,1004.18
2022-11-24T04:02:09.286Z,1004.18
2022-11-24T04:03:09.282Z,1004.21
2022-11-24T04:04:09.172Z,1004.21
2022-11-24T04:05:09.157Z,1004.17
2022-11-24T04:06:09.170Z,1004.15
2022-11-24T04:07:09.206Z,1004.23
2022-11-24T04:08:09.157Z,1004.21
2022-11-24T04:09:09.138Z,1004.24
2022-11-24T04:10:09.151Z,1004.20
2022-11-24T04:11:09.094Z,1004.22
2022-11-24T04:12:09.073Z,1004.25
2022-11-24T04:13:09.096Z,1004.23
2022-11-24T04:14:13.416Z,1004.23
2022-11-24T04:15:09.262Z,1004.22
2022-11-24T04:16:09.075Z,1004.19
2022-11-24T04:17:09.032Z,1004.23
2022-11-24T04:18:09.010Z,1004.21
2022-11-24T04:19:09.039Z,1004.23
2022-11-24T04:20:08.996Z,1004.25
2022-11-24T04:21:08.986Z,1004.23
2022-11-24T04:22:08.979Z,1004.22
2022-11-24T04:23:08.975Z,1004.23
2022-11-24T04:24:08.930Z,1004.22
2022-11-24T04:25:08.956Z,1004.25
2022-11-24T04:26:08.928Z,1004.23
2022-11-24T04:27:08.887Z,1004.26
2022-11-24T04:28:08.914Z,1004.27
2022-11-24T04:29:08.874Z,1004.28
2022-11-24T04:30:08.881Z,1004.29
2022-11-24T04:31:08.888Z,1004.29
2022-11-24T04:32:08.875Z,1004.34
2022-11-24T04:33:08.815Z,1004.31
2022-11-24T04:34:08.825Z,1004.38
2022-11-24T04:35:08.805Z,1004.37
2022-11-24T04:36:08.832Z,1004.32
2022-11-24T04:37:08.773Z,1004.39
2022-11-24T04:38:08.764Z,1004.37
2022-11-24T04:39:25.722Z,1004.36
2022-11-24T04:40:09.771Z,1004.40
2022-11-24T04:41:08.737Z,1004.38
2022-11-24T04:42:08.699Z,1004.41
2022-11-24T04:43:08.691Z,1004.37
2022-11-24T04:44:08.680Z,1004.34
2022-11-24T04:45:08.698Z,1004.36
2022-11-24T04:46:08.745Z,1004.37
2022-11-24T04:47:08.669Z,1004.39
2022-11-24T04:48:08.630Z,1004.34
2022-11-24T04:49:08.647Z,1004.34
2022-11-24T04:50:08.598Z,1004.30
2022-11-24T04:51:08.605Z,1004.34
2022-11-24T04:52:08.652Z,1004.35
2022-11-24T04:53:08.581Z,1004.42
2022-11-24T04:54:08.581Z,1004.47
2022-11-24T04:55:08.581Z,1004.46
2022-11-24T04:56:08.544Z,1004.47
2022-11-24T04:57:08.515Z,1004.45
2022-11-24T04:58:08.553Z,1004.50
2022-11-24T04:59:08.848Z,1004.47
2022-11-24T05:00:08.489Z,1004.49
2022-11-24T05:01:08.469Z,1004.53
2022-11-24T05:02:08.553Z,1004.51
2022-11-24T05:03:08.487Z,1004.55
2022-11-24T05:04:08.476Z,1004.53
2022-11-24T05:05:08.433Z,1004.56
2022-11-24T05:06:08.422Z,1004.54
2022-11-24T05:07:11.293Z,1004.60
2022-11-24T05:08:09.414Z,1004.55
2022-11-24T05:09:08.394Z,1004.62
2022-11-24T05:10:08.363Z,1004.61
2022-11-24T05:11:08.364Z,1004.65
2022-11-24T05:12:08.355Z,1004.65
2022-11-24T05:13:08.353Z,1004.71
2022-11-24T05:14:08.309Z,1004.70
2022-11-24T05:15:08.312Z,1004.70
2022-11-24T05:16:08.308Z,1004.76
2022-11-24T05:17:08.288Z,1004.73
2022-11-24T05:18:08.272Z,1004.70
2022-11-24T05:19:08.300Z,1004.74
2022-11-24T05:20:08.245Z,1004.75
2022-11-24T05:21:08.239Z,1004.80
2022-11-24T05:22:08.227Z,1004.78
2022-11-24T05:23:08.247Z,1004.79
2022-11-24T05:24:08.182Z,1004.80
2022-11-24T05:25:08.189Z,1004.80
2022-11-24T05:26:08.188Z,1004.77
2022-11-24T05:27:08.169Z,1004.83
2022-11-24T05:28:08.144Z,1004.77
2022-11-24T05:29:08.142Z,1004.82
2022-11-24T05:30:08.127Z,1004.83
2022-11-24T05:31:08.176Z,1004.88
2022-11-24T05:32:08.096Z,1004.82
2022-11-24T05:33:08.075Z,1004.82
2022-11-24T05:34:08.072Z,1004.83
2022-11-24T05:35:08.050Z,1004.88
2022-11-24T05:36:08.134Z,1004.86
2022-11-24T05:37:08.062Z,1004.89
2022-11-24T05:38:08.028Z,1004.88
2022-11-24T05:39:08.020Z,1004.91
2022-11-24T05:40:08.042Z,1004.91
2022-11-24T05:41:07.993Z,1004.94
2022-11-24T05:42:07.991Z,1004.97
2022-11-24T05:43:07.951Z,1004.94
2022-11-24T05:44:07.942Z,1005.00
2022-11-24T05:45:07.923Z,1004.98
2022-11-24T05:46:07.917Z,1005.00
2022-11-24T05:47:07.958Z,1005.05
2022-11-24T05:48:08.017Z,1005.06
2022-11-24T05:49:07.898Z,1005.03
2022-11-24T05:50:07.879Z,1005.05
2022-11-24T05:51:09.385Z,1005.11
2022-11-24T05:52:07.834Z,1005.04
2022-11-24T05:53:07.841Z,1005.07
2022-11-24T05:54:07.835Z,1005.08
2022-11-24T05:55:07.795Z,1005.10
2022-11-24T05:56:07.780Z,1005.06
2022-11-24T05:57:07.818Z,1005.09
2022-11-24T05:58:07.764Z,1005.06
2022-11-24T05:59:10.029Z,1005.08
2022-11-24T06:00:07.781Z,1005.14
2022-11-24T06:01:07.732Z,1005.14
2022-11-24T06:02:07.845Z,1005.19
2022-11-24T06:03:07.779Z,1005.21
2022-11-24T06:04:07.706Z,1005.23
2022-11-24T06:05:07.748Z,1005.19
2022-11-24T06:06:07.659Z,1005.22
2022-11-24T06:07:07.724Z,1005.19
2022-11-24T06:08:07.641Z,1005.22
2022-11-24T06:09:07.658Z,1005.23
2022-11-24T06:10:07.637Z,1005.25
2022-11-24T06:11:07.634Z,1005.27
2022-11-24T06:12:07.617Z,1005.24
2022-11-24T06:13:07.629Z,1005.29
2022-11-24T06:14:11.057Z,1005.27
2022-11-24T06:15:07.587Z,1005.34
2022-11-24T06:16:07.600Z,1005.32
2022-11-24T06:17:07.525Z,1005.37
2022-11-24T06:18:07.537Z,1005.29
2022-11-24T06:19:07.505Z,1005.36
2022-11-24T06:20:07.542Z,1005.34
2022-11-24T06:21:11.856Z,1005.36
2022-11-24T06:22:07.474Z,1005.38
2022-11-24T06:23:07.477Z,1005.43
2022-11-24T06:24:07.445Z,1005.43
2022-11-24T06:25:07.448Z,1005.43
2022-11-24T06:26:07.443Z,1005.45
2022-11-24T06:27:07.429Z,1005.42
2022-11-24T06:28:07.415Z,1005.46
2022-11-24T06:29:07.389Z,1005.47
2022-11-24T06:30:07.376Z,1005.47
2022-11-24T06:31:07.375Z,1005.49
2022-11-24T06:32:07.418Z,1005.46
2022-11-24T06:33:07.361Z,1005.46
2022-11-24T06:34:07.329Z,1005.46
2022-11-24T06:35:07.305Z,1005.54
2022-11-24T06:36:07.291Z,1005.52
2022-11-24T06:37:07.334Z,1005.53
2022-11-24T06:38:07.283Z,1005.55
2022-11-24T06:39:07.287Z,1005.53
2022-11-24T06:40:07.236Z,1005.55
2022-11-24T06:41:07.230Z,1005.57
2022-11-24T06:42:07.258Z,1005.61
2022-11-24T06:43:07.239Z,1005.62
2022-11-24T06:44:07.214Z,1005.68
2022-11-24T06:45:09.428Z,1005.67
2022-11-24T06:46:07.290Z,1005.65
2022-11-24T06:47:07.169Z,1005.82
2022-11-24T06:48:07.165Z,1005.76
2022-11-24T06:49:07.182Z,1005.80
2022-11-24T06:50:07.151Z,1005.78
2022-11-24T06:51:07.131Z,1005.80
2022-11-24T06:52:07.107Z,1005.83
2022-11-24T06:53:07.095Z,1005.81
2022-11-24T06:54:07.113Z,1005.83
2022-11-24T06:55:07.072Z,1005.84
2022-11-24T06:56:12.096Z,1005.84
2022-11-24T06:57:08.065Z,1005.85
2022-11-24T06:58:07.014Z,1005.86
2022-11-24T06:59:07.026Z,1005.90
2022-11-24T07:00:07.025Z,1005.88
2022-11-24T07:01:07.055Z,1005.91
2022-11-24T07:02:06.996Z,1005.90
2022-11-24T07:03:07.028Z,1005.97
2022-11-24T07:04:06.954Z,1005.99
2022-11-24T07:05:06.945Z,1005.97
2022-11-24T07:06:06.917Z,1005.97
2022-11-24T07:07:07.006Z,1005.99
2022-11-24T07:08:06.910Z,1006.03
2022-11-24T07:09:06.919Z,1006.07
2022-11-24T07:10:06.881Z,1006.07
2022-11-24T07:11:06.870Z,1006.08
2022-11-24T07:12:06.861Z,1006.12
2022-11-24T07:13:06.847Z,1006.16
2022-11-24T07:14:06.850Z,1006.20
2022-11-24T07:15:06.821Z,1006.20
2022-11-24T07:16:06.858Z,1006.25
2022-11-24T07:17:06.818Z,1006.23
2022-11-24T07:18:06.780Z,1006.24
2022-11-24T07:19:06.780Z,1006.27
2022-11-24T07:20:06.795Z,1006.25
2022-11-24T07:21:06.733Z,1006.25
2022-11-24T07:22:06.733Z,1006.27
2022-11-24T07:23:06.733Z,1006.31
2022-11-24T07:24:06.706Z,1006.33
2022-11-24T07:25:06.710Z,1006.38
2022-11-24T07:26:07.198Z,1006.38
2022-11-24T07:27:06.666Z,1006.38
2022-11-24T07:28:06.646Z,1006.38
2022-11-24T07:29:06.656Z,1006.39
2022-11-24T07:30:06.627Z,1006.42
2022-11-24T07:31:06.652Z,1006.48
2022-11-24T07:32:06.640Z,1006.46
2022-11-24T07:33:06.595Z,1006.48
2022-11-24T07:34:06.585Z,1006.48
2022-11-24T07:35:06.564Z,1006.51
2022-11-24T07:36:06.551Z,1006.57
2022-11-24T07:37:06.563Z,1006.57
2022-11-24T07:38:06.515Z,1006.62
2022-11-24T07:39:06.524Z,1006.69
2022-11-24T07:40:06.514Z,1006.73
2022-11-24T07:41:06.504Z,1006.69
2022-11-24T07:42:06.470Z,1006.76
2022-11-24T07:43:06.492Z,1006.80
2022-11-24T07:44:06.464Z,1006.77
2022-11-24T07:45:06.431Z,1006.82
2022-11-24T07:46:06.524Z,1006.82
2022-11-24T07:47:06.413Z,1006.89
2022-11-24T07:48:06.407Z,1006.88
2022-11-24T07:49:06.425Z,1006.94
2022-11-24T07:50:06.370Z,1006.92
2022-11-24T07:51:06.359Z,1006.99
2022-11-24T07:52:06.351Z,1006.99
2022-11-24T07:53:06.334Z,1007.02
2022-11-24T07:54:06.349Z,1007.01
2022-11-24T07:55:06.322Z,1007.03
2022-11-24T07:56:06.302Z,1007.11
2022-11-24T07:57:06.290Z,1007.09
2022-11-24T07:58:06.267Z,1007.09
2022-11-24T07:59:06.250Z,1007.13
2022-11-24T08:00:06.289Z,1007.09
2022-11-24T08:01:06.244Z,1007.11
2022-11-24T08:02:06.304Z,1007.13
2022-11-24T08:03:06.204Z,1007.15
2022-11-24T08:04:06.279Z,1007.13
2022-11-24T08:05:06.218Z,1007.18
2022-11-24T08:07:22.056Z,1007.14
2022-11-24T08:08:06.407Z,1007.21
2022-11-24T08:09:06.160Z,1007.18
2022-11-24T08:10:06.134Z,1007.26
2022-11-24T08:11:06.142Z,1007.30
2022-11-24T08:12:06.140Z,1007.32
2022-11-24T08:13:06.167Z,1007.34
2022-11-24T08:14:06.110Z,1007.40
2022-11-24T08:15:10.952Z,1007.34
2022-11-24T08:16:07.094Z,1007.39
2022-11-24T08:17:06.100Z,1007.45
2022-11-24T08:18:06.019Z,1007.43
2022-11-24T08:19:06.013Z,1007.42
2022-11-24T08:20:06.011Z,1007.42
2022-11-24T08:21:06.031Z,1007.49
2022-11-24T08:22:13.527Z,1007.47
2022-11-24T08:23:05.937Z,1007.48
2022-11-24T08:24:05.956Z,1007.45
2022-11-24T08:25:05.903Z,1007.49
2022-11-24T08:26:05.909Z,1007.49
2022-11-24T08:27:05.893Z,1007.52
2022-11-24T08:28:05.870Z,1007.53
2022-11-24T08:29:05.879Z,1007.55
2022-11-24T08:30:05.838Z,1007.57
2022-11-24T08:31:05.830Z,1007.64
2022-11-24T08:32:05.896Z,1007.60
2022-11-24T08:33:05.802Z,1007.63
2022-11-24T08:34:05.800Z,1007.68
2022-11-24T08:35:13.858Z,1007.70
2022-11-24T08:36:06.797Z,1007.73
2022-11-24T08:37:05.803Z,1007.75
2022-11-24T08:38:05.770Z,1007.70
2022-11-24T08:39:05.762Z,1007.77
2022-11-24T08:40:05.730Z,1007.79
2022-11-24T08:41:05.959Z,1007.82
2022-11-24T08:42:05.691Z,1007.89
2022-11-24T08:43:05.690Z,1007.80
2022-11-24T08:44:05.682Z,1007.87
2022-11-24T08:45:19.896Z,1007.84
2022-11-24T08:46:06.714Z,1007.87
2022-11-24T08:47:05.643Z,1007.92
2022-11-24T08:48:05.627Z,1007.91
2022-11-24T08:49:05.619Z,1007.89
2022-11-24T08:50:05.618Z,1007.95
2022-11-24T08:51:05.583Z,1007.95
2022-11-24T08:52:05.564Z,1007.93
2022-11-24T08:53:05.556Z,1007.91
2022-11-24T08:54:05.534Z,1007.94
2022-11-24T08:55:05.524Z,1007.93
2022-11-24T08:56:05.538Z,1007.97
2022-11-24T08:57:05.523Z,1007.97
2022-11-24T08:58:05.487Z,1007.99
2022-11-24T08:59:05.589Z,1008.02
2022-11-24T09:00:05.465Z,1008.02
2022-11-24T09:01:05.549Z,1008.08
2022-11-24T09:02:05.491Z,1008.06
2022-11-24T09:03:05.426Z,1008.12
2022-11-24T09:04:05.505Z,1008.15
2022-11-24T09:05:17.434Z,1008.20
2022-11-24T09:06:06.396Z,1008.15
2022-11-24T09:07:05.366Z,1008.13
2022-11-24T09:08:05.368Z,1008.17
2022-11-24T09:09:05.351Z,1008.15
2022-11-24T09:10:05.348Z,1008.11
2022-11-24T09:11:05.327Z,1008.16
2022-11-24T09:12:09.922Z,1008.20
2022-11-24T09:13:06.299Z,1008.20
2022-11-24T09:14:05.316Z,1008.19
2022-11-24T09:15:05.320Z,1008.21
2022-11-24T09:16:05.253Z,1008.25
2022-11-24T09:17:05.360Z,1008.24
2022-11-24T09:18:05.220Z,1008.20
2022-11-24T09:19:05.232Z,1008.26
2022-11-24T09:20:05.200Z,1008.29
2022-11-24T09:21:05.191Z,1008.34
2022-11-24T09:22:05.188Z,1008.26
2022-11-24T09:23:05.177Z,1008.33
2022-11-24T09:24:05.162Z,1008.30
2022-11-24T09:25:05.151Z,1008.30
2022-11-24T09:26:05.122Z,1008.29
2022-11-24T09:27:05.119Z,1008.31
2022-11-24T09:28:05.101Z,1008.35
2022-11-24T09:29:05.095Z,1008.40
2022-11-24T09:30:05.063Z,1008.36
2022-11-24T09:31:05.094Z,1008.41
2022-11-24T09:32:06.933Z,1008.37
2022-11-24T09:33:05.072Z,1008.46
2022-11-24T09:34:05.027Z,1008.42
2022-11-24T09:35:05.005Z,1008.46
2022-11-24T09:36:04.997Z,1008.49
2022-11-24T09:37:04.964Z,1008.51
2022-11-24T09:38:04.947Z,1008.54
2022-11-24T09:39:04.976Z,1008.60
2022-11-24T09:40:04.939Z,1008.60
2022-11-24T09:41:04.924Z,1008.62
2022-11-24T09:42:04.897Z,1008.64
2022-11-24T09:43:04.896Z,1008.65
2022-11-24T09:44:04.885Z,1008.65
2022-11-24T09:45:04.866Z,1008.66
2022-11-24T09:46:06.211Z,1008.71
2022-11-24T09:47:04.902Z,1008.71
2022-11-24T09:48:04.825Z,1008.76
2022-11-24T09:49:04.831Z,1008.75
2022-11-24T09:50:04.787Z,1008.77
2022-11-24T09:51:04.796Z,1008.79
2022-11-24T09:52:04.765Z,1008.81
2022-11-24T09:53:04.757Z,1008.80
2022-11-24T09:54:04.728Z,1008.79
2022-11-24T09:55:04.722Z,1008.82
2022-11-24T09:56:04.721Z,1008.80
2022-11-24T09:57:04.690Z,1008.82
2022-11-24T09:58:04.680Z,1008.79
2022-11-24T09:59:04.659Z,1008.84
2022-11-24T10:00:04.664Z,1008.83
2022-11-24T10:01:04.727Z,1008.87
2022-11-24T10:02:04.677Z,1008.87
2022-11-24T10:03:04.605Z,1008.91
2022-11-24T10:04:06.648Z,1008.87
2022-11-24T10:05:04.635Z,1008.90
2022-11-24T10:06:04.563Z,1008.95
2022-11-24T10:07:04.580Z,1008.89
2022-11-24T10:08:04.548Z,1008.95
2022-11-24T10:09:04.540Z,1008.96
2022-11-24T10:10:04.522Z,1008.97
2022-11-24T10:11:04.498Z,1008.98
2022-11-24T10:12:04.506Z,1009.01
2022-11-24T10:13:04.492Z,1009.01
2022-11-24T10:14:04.485Z,1009.00
2022-11-24T10:15:04.446Z,1009.06
2022-11-24T10:16:04.501Z,1009.01
2022-11-24T10:17:04.422Z,1008.98
2022-11-24T10:18:04.413Z,1009.04
2022-11-24T10:19:04.413Z,1008.99
2022-11-24T10:20:04.365Z,1009.03
2022-11-24T10:21:04.357Z,1009.07
2022-11-24T10:22:04.354Z,1009.02
2022-11-24T10:23:04.386Z,1009.02
2022-11-24T10:24:04.304Z,1008.98
2022-11-24T10:25:04.324Z,1008.96
2022-11-24T10:26:04.275Z,1009.00
2022-11-24T10:27:04.284Z,1009.02
2022-11-24T10:28:04.248Z,1009.02
2022-11-24T10:29:04.276Z,1009.00
2022-11-24T10:30:04.236Z,1009.07
2022-11-24T10:31:04.279Z,1009.09
2022-11-24T10:32:04.206Z,1009.08
2022-11-24T10:33:04.925Z,1009.08
2022-11-24T10:34:04.183Z,1009.08
2022-11-24T10:35:04.166Z,1009.06
2022-11-24T10:36:04.157Z,1009.10
2022-11-24T10:37:04.147Z,1009.10
2022-11-24T10:38:04.198Z,1009.08
2022-11-24T10:39:04.118Z,1009.15
2022-11-24T10:40:04.096Z,1009.09
2022-11-24T10:41:04.069Z,1009.11
2022-11-24T10:42:04.054Z,1009.15
2022-11-24T10:43:04.038Z,1009.16
2022-11-24T10:44:04.041Z,1009.14
2022-11-24T10:45:04.039Z,1009.13
2022-11-24T10:46:04.074Z,1009.26
2022-11-24T10:47:03.974Z,1009.17
2022-11-24T10:48:03.951Z,1009.23
2022-11-24T10:49:03.941Z,1009.23
2022-11-24T10:50:03.958Z,1009.24
2022-11-24T10:51:03.916Z,1009.23
2022-11-24T10:52:03.903Z,1009.22
2022-11-24T10:53:03.878Z,1009.22
2022-11-24T10:54:03.876Z,1009.21
2022-11-24T10:55:03.875Z,1009.23
2022-11-24T10:56:03.844Z,1009.22
2022-11-24T10:57:03.840Z,1009.29
2022-11-24T10:58:03.818Z,1009.29
2022-11-24T10:59:03.795Z,1009.31
2022-11-24T11:00:03.785Z,1009.34
2022-11-24T11:01:03.834Z,1009.39
2022-11-24T11:02:04.132Z,1009.33
2022-11-24T11:03:03.800Z,1009.35
2022-11-24T11:04:03.726Z,1009.39
2022-11-24T11:05:03.706Z,1009.41
2022-11-24T11:06:03.688Z,1009.42
2022-11-24T11:07:03.686Z,1009.44
2022-11-24T11:08:05.636Z,1009.46
2022-11-24T11:09:03.665Z,1009.50
2022-11-24T11:10:03.636Z,1009.43
2022-11-24T11:11:03.616Z,1009.48
2022-11-24T11:12:27.785Z,1009.49
2022-11-24T11:13:04.609Z,1009.55
2022-11-24T11:14:04.765Z,1009.49
2022-11-24T11:15:03.558Z,1009.46
2022-11-24T11:16:03.599Z,1009.49
2022-11-24T11:17:03.546Z,1009.56
2022-11-24T11:18:03.585Z,1009.55
2022-11-24T11:19:15.723Z,1009.54
2022-11-24T11:20:04.924Z,1009.51
2022-11-24T11:21:03.485Z,1009.54
2022-11-24T11:22:03.463Z,1009.58
2022-11-24T11:23:03.483Z,1009.52
2022-11-24T11:24:03.427Z,1009.53
2022-11-24T11:25:03.444Z,1009.61
2022-11-24T11:26:03.392Z,1009.65
2022-11-24T11:27:03.391Z,1009.54
2022-11-24T11:28:08.652Z,1009.60
2022-11-24T11:31:16.519Z,1009.66
2022-11-24T11:34:07.183Z,1009.72
2022-11-24T11:35:04.287Z,1009.73
2022-11-24T11:36:03.266Z,1009.68
2022-11-24T11:37:03.245Z,1009.70
2022-11-24T11:38:03.213Z,1009.69
2022-11-24T11:39:03.204Z,1009.73
2022-11-24T11:40:03.185Z,1009.73
2022-11-24T11:41:03.189Z,1009.67
2022-11-24T11:42:03.156Z,1009.73
2022-11-24T11:43:03.623Z,1009.69
2022-11-24T11:44:03.135Z,1009.74
2022-11-24T11:45:03.134Z,1009.75
2022-11-24T11:46:03.223Z,1009.78
2022-11-24T11:47:03.157Z,1009.81
2022-11-24T11:48:03.096Z,1009.75
2022-11-24T11:49:03.057Z,1009.72
2022-11-24T11:50:03.037Z,1009.76
2022-11-24T11:52:04.027Z,1009.78
2022-11-24T11:53:03.007Z,1009.80
2022-11-24T11:54:03.062Z,1009.79
2022-11-24T11:55:02.973Z,1009.79
2022-11-24T11:56:02.956Z,1009.74
2022-11-24T11:57:02.958Z,1009.71
2022-11-24T11:58:02.929Z,1009.75
2022-11-24T11:59:02.917Z,1009.79
2022-11-24T12:00:02.920Z,1009.71
2022-11-24T12:01:02.901Z,1009.75
2022-11-24T12:02:02.910Z,1009.78
2022-11-24T12:03:03.002Z,1009.82
2022-11-24T12:04:02.949Z,1009.87
2022-11-24T12:05:02.820Z,1009.86
2022-11-24T12:06:02.812Z,1009.83
2022-11-24T12:07:02.819Z,1009.88
2022-11-24T12:08:09.249Z,1009.80
2022-11-24T12:09:19.686Z,1009.79
2022-11-24T12:10:03.782Z,1009.82
2022-11-24T12:11:02.782Z,1009.79
2022-11-24T12:12:02.718Z,1009.77
2022-11-24T12:13:02.712Z,1009.79
2022-11-24T12:14:02.725Z,1009.80
2022-11-24T12:15:08.981Z,1009.81
2022-11-24T12:16:03.712Z,1009.79
2022-11-24T12:17:02.683Z,1009.76
2022-11-24T12:18:02.647Z,1009.77
2022-11-24T12:19:02.622Z,1009.80
2022-11-24T12:20:02.594Z,1009.76
2022-11-24T12:21:02.610Z,1009.81
2022-11-24T12:22:02.590Z,1009.79
2022-11-24T12:23:02.584Z,1009.77
2022-11-24T12:24:02.545Z,1009.75
2022-11-24T12:25:02.589Z,1009.73
2022-11-24T12:26:02.495Z,1009.78
2022-11-24T12:27:10.036Z,1009.71
2022-11-24T12:28:10.031Z,1009.75
2022-11-24T12:29:02.461Z,1009.74
2022-11-24T12:30:02.458Z,1009.79
2022-11-24T12:31:02.491Z,1009.74
2022-11-24T12:32:02.439Z,1009.70
2022-11-24T12:33:02.440Z,1009.71
2022-11-24T12:34:02.381Z,1009.68
2022-11-24T12:35:02.429Z,1009.66
2022-11-24T12:36:02.368Z,1009.66
2022-11-24T12:37:02.362Z,1009.66
2022-11-24T12:38:02.326Z,1009.69
2022-11-24T12:39:02.329Z,1009.69
2022-11-24T12:40:02.331Z,1009.68
2022-11-24T12:41:25.575Z,1009.66
2022-11-24T12:42:03.271Z,1009.66
2022-11-24T12:43:02.282Z,1009.70
2022-11-24T12:44:02.259Z,1009.68
2022-11-24T12:45:02.240Z,1009.67
2022-11-24T12:46:02.230Z,1009.73
2022-11-24T12:47:02.330Z,1009.71